createdAt,value
2022-09-03T00:01:19.129Z,0.20
2022-09-03T00:04:36.719Z,0.20
2022-09-03T00:07:14.074Z,0.20
2022-09-03T00:09:51.458Z,0.20
2022-09-03T00:12:32.216Z,0.30
2022-09-03T00:15:12.812Z,0.20
2022-09-03T00:17:51.566Z,0.20
2022-09-03T00:20:28.391Z,0.20
2022-09-03T00:23:00.791Z,0.30
2022-09-03T00:25:45.225Z,0.10
2022-09-03T00:28:18.782Z,0.30
2022-09-03T00:30:54.150Z,0.30
2022-09-03T00:33:25.779Z,0.20
2022-09-03T00:36:03.196Z,0.30
2022-09-03T00:38:31.240Z,0.20
2022-09-03T00:41:07.122Z,0.20
2022-09-03T00:43:52.558Z,0.15
2022-09-03T00:46:57.484Z,0.20
2022-09-03T00:49:41.020Z,0.20
2022-09-03T00:52:23.245Z,0.20
2022-09-03T00:55:31.807Z,0.20
2022-09-03T00:58:26.353Z,0.10
2022-09-03T01:00:53.678Z,0.20
2022-09-03T01:03:51.246Z,0.20
2022-09-03T01:06:24.853Z,0.17
2022-09-03T01:09:09.649Z,0.20
2022-09-03T01:11:59.774Z,0.20
2022-09-03T01:14:46.230Z,0.20
2022-09-03T01:17:19.122Z,0.28
2022-09-03T01:20:14.134Z,0.10
2022-09-03T01:22:44.542Z,0.20
2022-09-03T01:25:32.142Z,0.30
2022-09-03T01:28:02.243Z,0.20
2022-09-03T01:30:39.032Z,0.45
2022-09-03T01:33:31.903Z,0.20
2022-09-03T01:39:06.453Z,0.10
2022-09-03T01:42:15.740Z,0.20
2022-09-03T01:44:59.171Z,0.20
2022-09-03T01:47:54.608Z,0.20
2022-09-03T01:50:57.994Z,0.20
2022-09-03T01:53:43.486Z,0.30
2022-09-03T01:56:48.082Z,0.20
2022-09-03T01:59:28.949Z,0.20
2022-09-03T02:02:22.713Z,0.13
2022-09-03T02:04:59.339Z,0.20
2022-09-03T02:07:33.771Z,0.30
2022-09-03T02:10:06.925Z,0.20
2022-09-03T02:12:36.435Z,0.35
2022-09-03T02:15:12.526Z,0.25
2022-09-03T02:17:42.270Z,0.20
2022-09-03T02:20:13.843Z,0.28
2022-09-03T02:22:41.872Z,0.20
2022-09-03T02:25:11.075Z,0.30
2022-09-03T02:27:39.199Z,0.20
2022-09-03T02:30:07.815Z,0.28
2022-09-03T02:32:34.928Z,0.20
2022-09-03T02:35:01.883Z,0.30
2022-09-03T02:37:29.160Z,0.30
2022-09-03T02:39:56.131Z,0.17
2022-09-03T02:42:23.314Z,0.20
2022-09-03T02:44:59.438Z,0.20
2022-09-03T02:47:31.894Z,0.50
2022-09-03T02:52:25.728Z,0.22
2022-09-03T02:54:52.616Z,0.30
2022-09-03T02:57:27.276Z,0.20
2022-09-03T02:59:55.314Z,0.20
2022-09-03T03:02:22.666Z,0.20
2022-09-03T03:04:51.282Z,0.32
2022-09-03T03:07:20.773Z,0.20
2022-09-03T03:09:47.732Z,0.20
2022-09-03T03:12:18.429Z,0.20
2022-09-03T03:14:45.406Z,0.20
2022-09-03T03:17:12.279Z,0.30
2022-09-03T03:19:39.220Z,0.20
2022-09-03T03:22:06.316Z,0.10
2022-09-03T03:24:33.321Z,0.30
2022-09-03T03:27:00.229Z,0.20
2022-09-03T03:29:27.451Z,0.20
2022-09-03T03:31:54.835Z,0.20
2022-09-03T03:34:22.017Z,0.20
2022-09-03T03:36:49.003Z,0.20
2022-09-03T03:39:16.106Z,0.20
2022-09-03T03:41:43.431Z,0.20
2022-09-03T03:44:10.505Z,0.20
2022-09-03T03:46:39.664Z,0.30
2022-09-03T03:49:07.903Z,0.30
2022-09-03T03:51:36.057Z,0.30
2022-09-03T03:54:05.433Z,0.20
2022-09-03T03:56:34.164Z,0.30
2022-09-03T03:59:01.228Z,0.20
2022-09-03T04:01:28.589Z,0.20
2022-09-03T04:03:56.919Z,0.35
2022-09-03T04:06:24.346Z,0.20
2022-09-03T04:08:51.445Z,0.20
2022-09-03T04:11:21.095Z,0.20
2022-09-03T04:13:51.081Z,0.20
2022-09-03T04:16:20.782Z,0.30
2022-09-03T04:18:50.721Z,0.20
2022-09-03T04:21:23.431Z,0.20
2022-09-03T04:23:51.582Z,0.20
2022-09-03T04:26:24.347Z,0.25
2022-09-03T04:28:51.342Z,0.30
2022-09-03T04:31:19.956Z,0.20
2022-09-03T04:33:47.550Z,0.10
2022-09-03T04:36:20.575Z,0.40
2022-09-03T04:38:50.678Z,0.20
2022-09-03T04:41:20.217Z,0.28
2022-09-03T04:43:51.397Z,0.20
2022-09-03T04:46:20.721Z,0.20
2022-09-03T04:48:52.758Z,0.20
2022-09-03T04:51:22.474Z,0.22
2022-09-03T04:53:55.206Z,0.10
2022-09-03T04:56:24.928Z,0.20
2022-09-03T04:59:04.182Z,0.22
2022-09-03T05:01:33.246Z,0.20
2022-09-03T05:04:01.235Z,0.30
2022-09-03T05:06:29.927Z,0.20
2022-09-03T05:08:57.818Z,0.20
2022-09-03T05:11:26.119Z,0.20
2022-09-03T05:13:55.255Z,0.15
2022-09-03T05:16:23.666Z,0.10
2022-09-03T05:18:55.701Z,0.20
2022-09-03T05:21:23.881Z,0.20
2022-09-03T05:23:52.513Z,0.20
2022-09-03T05:26:26.828Z,0.10
2022-09-03T05:28:56.139Z,0.20
2022-09-03T05:31:26.366Z,0.20
2022-09-03T05:33:58.545Z,0.20
2022-09-03T05:36:29.227Z,0.20
2022-09-03T05:39:00.213Z,0.30
2022-09-03T05:41:29.169Z,0.10
2022-09-03T05:43:59.475Z,0.25
2022-09-03T05:46:34.389Z,0.15
2022-09-03T05:49:02.886Z,0.20
2022-09-03T05:51:31.014Z,0.25
2022-09-03T05:53:58.909Z,0.15
2022-09-03T05:56:28.617Z,0.20
2022-09-03T05:59:00.535Z,0.10
2022-09-03T06:01:33.980Z,0.20
2022-09-03T06:04:12.840Z,0.20
2022-09-03T06:06:42.098Z,0.20
2022-09-03T06:09:20.747Z,0.20
2022-09-03T06:11:50.148Z,0.30
2022-09-03T06:14:17.852Z,0.20
2022-09-03T06:16:49.779Z,0.20
2022-09-03T06:19:17.692Z,0.20
2022-09-03T06:21:45.895Z,0.20
2022-09-03T06:24:27.919Z,0.30
2022-09-03T06:26:56.634Z,0.30
2022-09-03T06:29:23.791Z,0.30
2022-09-03T06:31:51.376Z,0.20
2022-09-03T06:34:18.821Z,0.20
2022-09-03T06:36:46.632Z,0.20
2022-09-03T06:39:13.631Z,0.20
2022-09-03T06:41:40.677Z,0.20
2022-09-03T06:44:11.937Z,0.20
2022-09-03T06:46:42.363Z,0.30
2022-09-03T06:49:10.368Z,0.30
2022-09-03T06:51:39.065Z,0.30
2022-09-03T06:54:10.915Z,0.30
2022-09-03T06:56:40.811Z,0.30
2022-09-03T06:59:15.574Z,0.20
2022-09-03T07:01:46.058Z,0.20
2022-09-03T07:04:19.358Z,0.22
2022-09-03T07:06:48.174Z,0.30
2022-09-03T07:09:18.090Z,0.30
2022-09-03T07:11:49.237Z,0.20
2022-09-03T07:14:19.022Z,0.22
2022-09-03T07:16:46.988Z,0.40
2022-09-03T07:19:14.341Z,0.20
2022-09-03T07:21:46.775Z,0.20
2022-09-03T07:24:17.133Z,0.30
2022-09-03T07:26:48.831Z,0.30
2022-09-03T07:29:20.157Z,0.30
2022-09-03T07:31:51.881Z,0.10
2022-09-03T07:34:19.775Z,0.20
2022-09-03T07:36:50.919Z,0.20
2022-09-03T07:39:21.402Z,0.28
2022-09-03T07:41:52.926Z,0.22
2022-09-03T07:44:20.282Z,0.20
2022-09-03T07:46:48.231Z,0.20
2022-09-03T07:49:15.639Z,0.30
2022-09-03T07:51:42.647Z,0.20
2022-09-03T07:54:11.587Z,0.15
2022-09-03T07:56:40.695Z,0.20
2022-09-03T07:59:08.467Z,0.20
2022-09-03T08:01:41.613Z,0.30
2022-09-03T08:04:11.132Z,0.20
2022-09-03T08:06:39.309Z,0.20
2022-09-03T08:09:29.597Z,0.30
2022-09-03T08:11:56.667Z,0.25
2022-09-03T08:14:26.420Z,0.13
2022-09-03T08:16:53.511Z,0.13
2022-09-03T08:19:27.457Z,0.20
2022-09-03T08:22:00.705Z,0.20
2022-09-03T08:24:34.723Z,0.35
2022-09-03T08:27:01.782Z,0.30
2022-09-03T08:29:28.915Z,0.20
2022-09-03T08:31:56.082Z,0.20
2022-09-03T08:34:24.020Z,0.20
2022-09-03T08:36:54.344Z,0.20
2022-09-03T08:39:21.422Z,0.17
2022-09-03T08:41:51.333Z,0.20
2022-09-03T08:44:36.955Z,0.20
2022-09-03T08:47:27.198Z,0.10
2022-09-03T08:50:05.967Z,0.20
2022-09-03T08:52:39.140Z,0.20
2022-09-03T08:55:32.019Z,0.20
2022-09-03T08:58:30.222Z,0.20
2022-09-03T09:01:23.332Z,0.10
2022-09-03T09:04:10.830Z,0.30
2022-09-03T09:06:37.780Z,0.20
2022-09-03T09:09:33.836Z,0.20
2022-09-03T09:12:42.521Z,0.20
2022-09-03T09:15:34.424Z,0.20
2022-09-03T09:18:16.674Z,0.30
2022-09-03T09:20:54.784Z,0.20
2022-09-03T09:23:30.323Z,0.20
2022-09-03T09:25:59.727Z,0.20
2022-09-03T09:28:37.716Z,0.10
2022-09-03T09:31:10.112Z,0.20
2022-09-03T09:33:37.719Z,0.10
2022-09-03T09:36:09.762Z,0.10
2022-09-03T09:41:14.135Z,0.20
2022-09-03T09:43:41.589Z,0.10
2022-09-03T09:46:35.277Z,0.10
2022-09-03T09:49:03.538Z,0.10
2022-09-03T09:51:32.291Z,0.20
2022-09-03T09:54:03.968Z,0.20
2022-09-03T09:56:30.993Z,0.20
2022-09-03T09:59:09.984Z,0.10
2022-09-03T10:01:49.944Z,0.20
2022-09-03T10:04:32.887Z,0.20
2022-09-03T10:07:20.105Z,0.30
2022-09-03T10:09:58.971Z,0.20
2022-09-03T10:12:44.812Z,0.30
2022-09-03T10:15:26.909Z,0.20
2022-09-03T10:17:59.918Z,0.20
2022-09-03T10:20:32.204Z,0.10
2022-09-03T10:23:05.246Z,0.20
2022-09-03T10:25:56.166Z,0.13
2022-09-03T10:28:27.345Z,0.20
2022-09-03T10:31:32.245Z,0.10
2022-09-03T10:34:18.655Z,0.30
2022-09-03T10:36:59.440Z,0.20
2022-09-03T10:39:45.844Z,0.20
2022-09-03T10:42:14.664Z,0.13
2022-09-03T10:45:05.607Z,0.43
2022-09-03T10:48:05.523Z,0.20
2022-09-03T10:50:44.849Z,0.10
2022-09-03T10:53:53.590Z,0.20
2022-09-03T10:56:38.342Z,0.20
2022-09-03T10:59:33.998Z,0.20
2022-09-03T11:02:15.296Z,0.20
2022-09-03T11:05:01.185Z,0.10
2022-09-03T11:07:35.366Z,0.10
2022-09-03T11:10:29.716Z,0.30
2022-09-03T11:13:07.862Z,0.20
2022-09-03T11:15:55.100Z,0.20
2022-09-03T11:18:22.087Z,0.20
2022-09-03T11:20:54.826Z,0.20
2022-09-03T11:23:27.004Z,0.10
2022-09-03T11:25:58.585Z,0.10
2022-09-03T11:28:46.237Z,0.20
2022-09-03T11:31:59.404Z,0.17
2022-09-03T11:34:44.979Z,0.10
2022-09-03T11:37:34.650Z,0.10
2022-09-03T11:40:21.372Z,0.13
2022-09-03T11:42:50.968Z,0.30
2022-09-03T11:45:20.989Z,0.20
2022-09-03T11:47:48.816Z,0.10
2022-09-03T11:50:31.372Z,0.20
2022-09-03T11:53:09.466Z,0.10
2022-09-03T11:56:00.871Z,0.10
2022-09-03T11:58:43.655Z,0.17
2022-09-03T12:01:16.466Z,0.20
2022-09-03T12:04:03.460Z,0.20
2022-09-03T12:07:07.462Z,0.20
2022-09-03T12:10:08.876Z,0.20
2022-09-03T12:12:41.945Z,0.20
2022-09-03T12:15:46.117Z,0.20
2022-09-03T12:18:35.229Z,0.20
2022-09-03T12:21:06.294Z,0.15
2022-09-03T12:23:34.457Z,0.20
2022-09-03T12:26:06.015Z,0.10
2022-09-03T12:28:38.899Z,0.28
2022-09-03T12:31:24.563Z,0.20
2022-09-03T12:33:59.109Z,0.20
2022-09-03T12:36:36.845Z,0.20
2022-09-03T12:42:20.755Z,0.20
2022-09-03T12:44:50.742Z,0.20
2022-09-03T12:47:37.369Z,0.20
2022-09-03T12:50:22.902Z,0.20
2022-09-03T12:52:56.870Z,0.32
2022-09-03T12:55:27.492Z,0.38
2022-09-03T12:58:13.843Z,0.20
2022-09-03T13:01:11.133Z,0.20
2022-09-03T13:03:57.950Z,0.30
2022-09-03T13:06:46.604Z,0.20
2022-09-03T13:09:14.523Z,0.30
2022-09-03T13:11:44.186Z,0.30
2022-09-03T13:14:17.601Z,0.22
2022-09-03T13:16:46.519Z,0.38
2022-09-03T13:19:28.610Z,0.20
2022-09-03T13:22:32.638Z,0.13
2022-09-03T13:25:24.364Z,0.28
2022-09-03T13:28:32.117Z,0.20
2022-09-03T13:31:24.470Z,0.20
2022-09-03T13:36:36.693Z,0.20
2022-09-03T13:39:09.556Z,0.20
2022-09-03T13:41:48.044Z,0.25
2022-09-03T13:44:22.190Z,0.30
2022-09-03T13:46:55.394Z,0.20
2022-09-03T13:49:53.422Z,0.28
2022-09-03T13:52:38.046Z,0.30
2022-09-03T13:55:30.096Z,0.30
2022-09-03T13:58:03.429Z,0.20
2022-09-03T14:00:42.902Z,0.30
2022-09-03T14:03:22.125Z,0.30
2022-09-03T14:06:02.635Z,0.20
2022-09-03T14:09:07.264Z,0.50
2022-09-03T14:12:03.939Z,0.40
2022-09-03T14:14:59.704Z,0.40
2022-09-03T14:17:43.888Z,0.20
2022-09-03T14:20:26.362Z,0.20
2022-09-03T14:22:56.972Z,0.30
2022-09-03T14:25:26.680Z,0.30
2022-09-03T14:27:56.067Z,0.40
2022-09-03T14:30:33.814Z,0.28
2022-09-03T14:33:31.655Z,0.40
2022-09-03T14:36:22.548Z,0.30
2022-09-03T14:39:13.480Z,0.20
2022-09-03T14:42:01.399Z,0.30
2022-09-03T14:44:31.127Z,0.30
2022-09-03T14:47:07.938Z,0.40
2022-09-03T14:49:59.572Z,0.30
2022-09-03T14:52:53.831Z,0.30
2022-09-03T14:55:26.948Z,0.50
2022-09-03T14:58:17.946Z,0.30
2022-09-03T15:01:01.571Z,0.30
2022-09-03T15:04:10.503Z,0.35
2022-09-03T15:06:52.914Z,0.30
2022-09-03T15:10:00.909Z,0.30
2022-09-03T15:12:37.308Z,0.20
2022-09-03T15:15:18.622Z,0.30
2022-09-03T15:18:07.670Z,0.20
2022-09-03T15:20:52.956Z,0.20
2022-09-03T15:23:40.829Z,0.22
2022-09-03T15:26:27.571Z,0.20
2022-09-03T15:29:22.520Z,0.30
2022-09-03T15:31:52.295Z,0.20
2022-09-03T15:34:32.620Z,0.40
2022-09-03T15:37:07.276Z,0.30
2022-09-03T15:39:37.120Z,0.20
2022-09-03T15:42:11.926Z,0.30
2022-09-03T15:44:54.074Z,0.20
2022-09-03T15:47:50.831Z,0.20
2022-09-03T15:50:33.019Z,0.28
2022-09-03T15:53:27.076Z,0.20
2022-09-03T15:56:24.651Z,0.20
2022-09-03T15:59:21.534Z,0.30
2022-09-03T16:01:48.538Z,0.30
2022-09-03T16:04:44.368Z,0.20
2022-09-03T16:07:36.903Z,0.20
2022-09-03T16:13:29.264Z,0.40
2022-09-03T16:16:20.051Z,0.20
2022-09-03T16:18:58.649Z,0.30
2022-09-03T16:22:19.412Z,0.38
2022-09-03T16:24:54.081Z,0.50
2022-09-03T16:27:28.471Z,0.30
2022-09-03T16:30:12.176Z,0.40
2022-09-03T16:33:21.588Z,0.25
2022-09-03T16:36:03.854Z,0.30
2022-09-03T16:39:00.790Z,0.40
2022-09-03T16:41:59.612Z,0.90
2022-09-03T16:44:51.304Z,0.75
2022-09-03T16:50:24.446Z,0.60
2022-09-03T16:53:29.369Z,3.20
2022-09-03T16:56:07.760Z,4.78
2022-09-03T16:58:59.179Z,2.97
2022-09-03T17:01:44.216Z,2.20
2022-09-03T17:04:43.343Z,1.45
2022-09-03T17:07:56.952Z,1.48
2022-09-03T17:10:36.200Z,0.70
2022-09-03T17:13:31.178Z,1.05
2022-09-03T17:16:25.042Z,0.60
2022-09-03T17:19:05.136Z,0.77
2022-09-03T17:21:38.524Z,0.40
2022-09-03T17:24:14.626Z,0.50
2022-09-03T17:27:32.518Z,0.50
2022-09-03T17:30:09.611Z,0.40
2022-09-03T17:33:07.823Z,0.45
2022-09-03T17:35:38.524Z,0.40
2022-09-03T17:38:08.512Z,0.35
2022-09-03T17:40:54.218Z,0.57
2022-09-03T17:43:58.651Z,0.40
2022-09-03T17:46:32.038Z,0.40
2022-09-03T17:49:06.956Z,0.40
2022-09-03T17:51:51.915Z,0.43
2022-09-03T17:54:34.869Z,0.50
2022-09-03T17:57:21.747Z,0.40
2022-09-03T18:00:08.459Z,0.40
2022-09-03T18:03:00.489Z,0.30
2022-09-03T18:05:50.625Z,0.47
2022-09-03T18:08:43.552Z,0.40
2022-09-03T18:11:33.918Z,0.25
2022-09-03T18:14:26.375Z,0.40
2022-09-03T18:16:56.558Z,0.40
2022-09-03T18:20:02.469Z,0.30
2022-09-03T18:23:11.650Z,0.40
2022-09-03T18:26:01.328Z,0.50
2022-09-03T18:29:10.785Z,0.80
2022-09-03T18:31:56.754Z,0.60
2022-09-03T18:34:52.033Z,0.50
2022-09-03T18:37:43.583Z,0.43
2022-09-03T18:40:39.445Z,0.50
2022-09-03T18:43:37.604Z,0.50
2022-09-03T18:47:56.302Z,0.45
2022-09-03T18:49:58.828Z,0.40
2022-09-03T18:53:33.755Z,0.52
2022-09-03T18:56:58.859Z,0.30
2022-09-03T19:00:08.646Z,0.35
2022-09-03T19:03:15.651Z,0.32
2022-09-03T19:06:20.204Z,0.50
2022-09-03T19:09:30.746Z,0.40
2022-09-03T19:12:25.362Z,0.50
2022-09-03T19:15:32.475Z,0.60
2022-09-03T19:18:49.040Z,0.40
2022-09-03T19:22:00.486Z,0.35
2022-09-03T19:24:50.562Z,0.40
2022-09-03T19:28:21.642Z,0.50
2022-09-03T19:31:33.470Z,0.40
2022-09-03T19:34:26.942Z,0.50
2022-09-03T19:37:23.585Z,0.50
2022-09-03T19:40:15.163Z,0.50
2022-09-03T19:43:36.972Z,0.50
2022-09-03T19:46:37.003Z,0.50
2022-09-03T19:49:47.335Z,0.50
2022-09-03T19:53:03.823Z,0.40
2022-09-03T19:55:56.050Z,0.57
2022-09-03T19:58:49.935Z,0.77
2022-09-03T20:01:37.971Z,0.50
2022-09-03T20:04:34.544Z,0.50
2022-09-03T20:07:24.083Z,0.50
2022-09-03T20:10:11.113Z,0.60
2022-09-03T20:12:43.462Z,0.65
2022-09-03T20:15:10.980Z,0.60
2022-09-03T20:18:04.880Z,0.75
2022-09-03T20:20:56.069Z,0.57
2022-09-03T20:23:34.998Z,1.33
2022-09-03T20:26:37.799Z,0.70
2022-09-03T20:29:32.832Z,0.80
2022-09-03T20:32:11.049Z,1.00
2022-09-03T20:34:56.148Z,0.95
2022-09-03T20:37:41.659Z,1.20
2022-09-03T20:40:26.953Z,0.95
2022-09-03T20:43:02.121Z,0.80
2022-09-03T20:45:49.984Z,1.05
2022-09-03T20:48:32.169Z,1.10
2022-09-03T20:51:12.168Z,0.93
2022-09-03T20:53:55.049Z,1.10
2022-09-03T20:56:27.574Z,0.90
2022-09-03T20:59:10.358Z,0.98
2022-09-03T21:02:00.740Z,1.17
2022-09-03T21:04:54.368Z,1.00
2022-09-03T21:07:27.269Z,1.10
2022-09-03T21:10:14.960Z,1.13
2022-09-03T21:13:08.048Z,1.30
2022-09-03T21:15:57.314Z,1.10
2022-09-03T21:18:38.962Z,1.25
2022-09-03T21:21:45.622Z,1.15
2022-09-03T21:24:21.073Z,1.27
2022-09-03T21:27:01.418Z,1.33
2022-09-03T21:29:40.376Z,1.25
2022-09-03T21:32:15.034Z,1.20
2022-09-03T21:34:50.524Z,1.23
2022-09-03T21:37:20.270Z,1.10
2022-09-03T21:39:57.012Z,0.80
2022-09-03T21:42:42.419Z,0.80
2022-09-03T21:45:34.741Z,1.17
2022-09-03T21:48:15.648Z,1.40
2022-09-03T21:50:55.767Z,1.55
2022-09-03T21:53:52.161Z,1.08
2022-09-03T21:56:32.874Z,0.73
2022-09-03T21:59:09.856Z,0.88
2022-09-03T22:01:43.341Z,1.08
2022-09-03T22:04:10.808Z,1.00
2022-09-03T22:06:57.815Z,1.15
2022-09-03T22:09:48.569Z,1.10
2022-09-03T22:12:21.891Z,1.08
2022-09-03T22:14:52.158Z,1.05
2022-09-03T22:17:46.105Z,1.00
2022-09-03T22:20:15.549Z,1.10
2022-09-03T22:22:48.578Z,0.80
2022-09-03T22:25:24.844Z,1.10
2022-09-03T22:28:15.574Z,1.10
2022-09-03T22:30:58.524Z,1.30
2022-09-03T22:33:39.246Z,1.00
2022-09-03T22:36:28.003Z,0.85
2022-09-03T22:39:23.882Z,1.38
2022-09-03T22:42:10.209Z,1.23
2022-09-03T22:44:58.426Z,1.33
2022-09-03T22:47:53.196Z,1.25
2022-09-03T22:50:49.217Z,0.98
2022-09-03T22:53:48.285Z,1.40
2022-09-03T22:56:22.415Z,1.10
2022-09-03T22:59:11.307Z,1.27
2022-09-03T23:01:57.029Z,1.10
2022-09-03T23:05:00.720Z,1.10
2022-09-03T23:07:42.288Z,1.10
2022-09-03T23:10:25.654Z,1.10
2022-09-03T23:13:16.588Z,1.40
2022-09-03T23:15:46.052Z,1.30
2022-09-03T23:18:26.915Z,1.30
2022-09-03T23:21:03.340Z,1.50
2022-09-03T23:23:44.176Z,1.23
2022-09-03T23:26:37.059Z,1.10
2022-09-03T23:29:20.290Z,1.20
2022-09-03T23:31:47.633Z,1.33
2022-09-03T23:34:15.436Z,1.30
2022-09-03T23:37:32.452Z,1.08
2022-09-03T23:40:05.354Z,1.20
2022-09-03T23:42:57.352Z,1.65
2022-09-03T23:45:46.911Z,1.30
2022-09-03T23:48:42.661Z,1.73
2022-09-03T23:51:42.018Z,1.60
2022-09-03T23:54:18.836Z,1.20
2022-09-03T23:56:52.328Z,1.35
2022-09-03T23:59:56.773Z,1.33
